Highlandale, Mississippi
Current Conditions -  °F | °C
As of 4:53 AM on Monday 22 Dec 2014 (Local Time) from KGWO Reporting Station
Overcast Overcast  
Wind Chill: 52°   Ceiling: 700
Heat Index: 52°   Visibility: 8mi
Dew Point: 49°   Wind: 10mph
Humidity: 89%   Direction: 150°SSE
Pressure: 29.85"   Gusts: NA
Location:  33.7503°N, 90.3378°W
Report Text: KGWO 221053Z AUTO 15009KT 8SM OVC007 11/09 A2985 RMK AO2 SLP109 T01110094
Loading
Personal Weather Stations






























Interactive Weather Map New forecast layout! Learn more

10-Day Weather Forecast

Advertisements
Track Severe Weather on mobile